sensor_id;sensor_type;location;lat;lon;timestamp;temperature;humidity
21570;DHT22;57598;50.888;4.746;2023-04-25T00:01:29;9.20;99.90
21570;DHT22;57598;50.888;4.746;2023-04-25T00:03:57;9.30;99.90
21570;DHT22;57598;50.888;4.746;2023-04-25T00:06:24;9.40;99.90
21570;DHT22;57598;50.888;4.746;2023-04-25T00:08:52;9.40;99.90
21570;DHT22;57598;50.888;4.746;2023-04-25T00:11:19;9.50;99.90
21570;DHT22;57598;50.888;4.746;2023-04-25T00:13:47;9.50;99.90
21570;DHT22;57598;50.888;4.746;2023-04-25T00:16:15;9.50;99.90
21570;DHT22;57598;50.888;4.746;2023-04-25T00:18:42;9.50;99.90
21570;DHT22;57598;50.888;4.746;2023-04-25T00:21:11;9.60;99.90
21570;DHT22;57598;50.888;4.746;2023-04-25T00:23:39;9.60;99.90
21570;DHT22;57598;50.888;4.746;2023-04-25T00:26:06;9.60;99.90
21570;DHT22;57598;50.888;4.746;2023-04-25T00:28:33;9.50;99.90
21570;DHT22;57598;50.888;4.746;2023-04-25T00:31:03;9.60;99.90
21570;DHT22;57598;50.888;4.746;2023-04-25T00:33:39;9.60;99.90
21570;DHT22;57598;50.888;4.746;2023-04-25T00:36:11;9.60;99.90
21570;DHT22;57598;50.888;4.746;2023-04-25T00:38:40;9.60;99.90
21570;DHT22;57598;50.888;4.746;2023-04-25T00:41:07;9.70;99.90
21570;DHT22;57598;50.888;4.746;2023-04-25T00:43:36;9.60;99.90
21570;DHT22;57598;50.888;4.746;2023-04-25T00:46:05;9.60;99.90
21570;DHT22;57598;50.888;4.746;2023-04-25T00:48:32;9.60;99.90
21570;DHT22;57598;50.888;4.746;2023-04-25T00:51:03;9.50;99.90
21570;DHT22;57598;50.888;4.746;2023-04-25T00:53:44;9.50;99.90
21570;DHT22;57598;50.888;4.746;2023-04-25T00:56:12;9.50;99.90
21570;DHT22;57598;50.888;4.746;2023-04-25T00:58:40;9.40;99.90
21570;DHT22;57598;50.888;4.746;2023-04-25T01:01:10;9.40;99.90
21570;DHT22;57598;50.888;4.746;2023-04-25T01:03:39;9.30;99.90
21570;DHT22;57598;50.888;4.746;2023-04-25T01:06:08;9.20;99.90
21570;DHT22;57598;50.888;4.746;2023-04-25T01:08:36;9.20;99.90
21570;DHT22;57598;50.888;4.746;2023-04-25T01:11:04;9.10;99.90
21570;DHT22;57598;50.888;4.746;2023-04-25T01:13:31;9.20;99.90
21570;DHT22;57598;50.888;4.746;2023-04-25T01:15:59;9.10;99.90
21570;DHT22;57598;50.888;4.746;2023-04-25T01:18:28;9.20;99.90
21570;DHT22;57598;50.888;4.746;2023-04-25T01:20:56;9.10;99.90
21570;DHT22;57598;50.888;4.746;2023-04-25T01:23:26;9.20;99.90
21570;DHT22;57598;50.888;4.746;2023-04-25T01:25:55;9.30;99.90
21570;DHT22;57598;50.888;4.746;2023-04-25T01:28:22;9.20;99.90
21570;DHT22;57598;50.888;4.746;2023-04-25T01:30:50;9.30;99.90
21570;DHT22;57598;50.888;4.746;2023-04-25T01:33:19;9.30;99.90
21570;DHT22;57598;50.888;4.746;2023-04-25T01:35:47;9.30;99.90
21570;DHT22;57598;50.888;4.746;2023-04-25T01:38:14;9.20;99.90
21570;DHT22;57598;50.888;4.746;2023-04-25T01:40:45;9.30;99.90
21570;DHT22;57598;50.888;4.746;2023-04-25T01:43:12;9.20;99.90
21570;DHT22;57598;50.888;4.746;2023-04-25T01:45:40;9.20;99.90
21570;DHT22;57598;50.888;4.746;2023-04-25T01:48:07;9.20;99.90
21570;DHT22;57598;50.888;4.746;2023-04-25T01:50:35;9.20;99.90
21570;DHT22;57598;50.888;4.746;2023-04-25T01:53:02;9.10;99.90
21570;DHT22;57598;50.888;4.746;2023-04-25T01:55:29;9.10;99.90
21570;DHT22;57598;50.888;4.746;2023-04-25T01:57:58;9.00;99.90
21570;DHT22;57598;50.888;4.746;2023-04-25T02:00:26;8.90;99.90
21570;DHT22;57598;50.888;4.746;2023-04-25T02:02:53;8.90;99.90
21570;DHT22;57598;50.888;4.746;2023-04-25T02:05:20;9.00;99.90
21570;DHT22;57598;50.888;4.746;2023-04-25T02:07:47;9.00;99.90
21570;DHT22;57598;50.888;4.746;2023-04-25T02:10:15;9.00;99.90
21570;DHT22;57598;50.888;4.746;2023-04-25T02:12:42;9.00;99.90
21570;DHT22;57598;50.888;4.746;2023-04-25T02:15:10;8.90;99.90
21570;DHT22;57598;50.888;4.746;2023-04-25T02:17:37;8.90;99.90
21570;DHT22;57598;50.888;4.746;2023-04-25T02:20:06;8.90;99.90
21570;DHT22;57598;50.888;4.746;2023-04-25T02:22:33;8.90;99.90
21570;DHT22;57598;50.888;4.746;2023-04-25T02:25:01;8.90;99.90
21570;DHT22;57598;50.888;4.746;2023-04-25T02:27:30;8.80;99.90
21570;DHT22;57598;50.888;4.746;2023-04-25T02:29:57;8.80;99.90
21570;DHT22;57598;50.888;4.746;2023-04-25T02:32:25;8.90;99.90
21570;DHT22;57598;50.888;4.746;2023-04-25T02:34:52;8.90;99.90
21570;DHT22;57598;50.888;4.746;2023-04-25T02:37:20;8.90;99.90
21570;DHT22;57598;50.888;4.746;2023-04-25T02:39:47;8.80;99.90
21570;DHT22;57598;50.888;4.746;2023-04-25T02:42:14;8.90;99.90
21570;DHT22;57598;50.888;4.746;2023-04-25T02:44:42;8.80;99.90
21570;DHT22;57598;50.888;4.746;2023-04-25T02:47:09;8.80;99.90
21570;DHT22;57598;50.888;4.746;2023-04-25T02:49:38;8.80;99.90
21570;DHT22;57598;50.888;4.746;2023-04-25T02:52:05;8.90;99.90
21570;DHT22;57598;50.888;4.746;2023-04-25T02:54:32;8.80;99.90
21570;DHT22;57598;50.888;4.746;2023-04-25T02:56:59;8.90;99.90
21570;DHT22;57598;50.888;4.746;2023-04-25T02:59:26;8.90;99.90
21570;DHT22;57598;50.888;4.746;2023-04-25T03:01:53;8.90;99.90
21570;DHT22;57598;50.888;4.746;2023-04-25T03:04:20;8.80;99.90
21570;DHT22;57598;50.888;4.746;2023-04-25T03:06:50;8.80;99.90
21570;DHT22;57598;50.888;4.746;2023-04-25T03:09:18;8.80;99.90
21570;DHT22;57598;50.888;4.746;2023-04-25T03:11:46;8.70;99.90
21570;DHT22;57598;50.888;4.746;2023-04-25T03:14:15;8.70;99.90
21570;DHT22;57598;50.888;4.746;2023-04-25T03:16:46;8.80;99.90
21570;DHT22;57598;50.888;4.746;2023-04-25T03:19:14;8.80;99.90
21570;DHT22;57598;50.888;4.746;2023-04-25T03:21:43;8.70;99.90
21570;DHT22;57598;50.888;4.746;2023-04-25T03:24:12;8.70;99.90
21570;DHT22;57598;50.888;4.746;2023-04-25T03:26:40;8.70;99.90
21570;DHT22;57598;50.888;4.746;2023-04-25T03:29:07;8.60;99.90
21570;DHT22;57598;50.888;4.746;2023-04-25T03:31:34;8.60;99.90
21570;DHT22;57598;50.888;4.746;2023-04-25T03:34:06;8.80;99.90
21570;DHT22;57598;50.888;4.746;2023-04-25T03:36:33;8.70;99.90
21570;DHT22;57598;50.888;4.746;2023-04-25T03:39:00;8.70;99.90
21570;DHT22;57598;50.888;4.746;2023-04-25T03:41:28;8.60;99.90
21570;DHT22;57598;50.888;4.746;2023-04-25T03:43:55;8.60;99.90
21570;DHT22;57598;50.888;4.746;2023-04-25T03:46:22;8.50;99.90
21570;DHT22;57598;50.888;4.746;2023-04-25T03:48:49;8.40;99.90
21570;DHT22;57598;50.888;4.746;2023-04-25T03:51:17;8.40;99.90
21570;DHT22;57598;50.888;4.746;2023-04-25T03:53:44;8.50;99.90
21570;DHT22;57598;50.888;4.746;2023-04-25T03:56:11;8.50;99.90
21570;DHT22;57598;50.888;4.746;2023-04-25T03:58:39;8.50;99.90
21570;DHT22;57598;50.888;4.746;2023-04-25T04:01:06;8.30;99.90
21570;DHT22;57598;50.888;4.746;2023-04-25T04:03:34;8.30;99.90
21570;DHT22;57598;50.888;4.746;2023-04-25T04:06:01;8.30;99.90
21570;DHT22;57598;50.888;4.746;2023-04-25T04:08:29;8.20;99.90
21570;DHT22;57598;50.888;4.746;2023-04-25T04:10:57;8.20;99.90
21570;DHT22;57598;50.888;4.746;2023-04-25T04:13:26;8.20;99.90
21570;DHT22;57598;50.888;4.746;2023-04-25T04:15:55;8.20;99.90
21570;DHT22;57598;50.888;4.746;2023-04-25T04:18:23;8.20;99.90
21570;DHT22;57598;50.888;4.746;2023-04-25T04:20:50;8.20;99.90
21570;DHT22;57598;50.888;4.746;2023-04-25T04:23:17;8.10;99.90
21570;DHT22;57598;50.888;4.746;2023-04-25T04:25:44;8.10;99.90
21570;DHT22;57598;50.888;4.746;2023-04-25T04:28:12;8.10;99.90
21570;DHT22;57598;50.888;4.746;2023-04-25T04:30:39;8.10;99.90
21570;DHT22;57598;50.888;4.746;2023-04-25T04:33:09;8.10;99.90
21570;DHT22;57598;50.888;4.746;2023-04-25T04:35:36;8.10;99.90
21570;DHT22;57598;50.888;4.746;2023-04-25T04:38:04;8.20;99.90
21570;DHT22;57598;50.888;4.746;2023-04-25T04:40:35;8.20;99.90
21570;DHT22;57598;50.888;4.746;2023-04-25T04:43:11;8.00;99.90
21570;DHT22;57598;50.888;4.746;2023-04-25T04:45:42;8.10;99.90
21570;DHT22;57598;50.888;4.746;2023-04-25T04:48:14;8.10;99.90
21570;DHT22;57598;50.888;4.746;2023-04-25T04:50:45;8.10;99.90
21570;DHT22;57598;50.888;4.746;2023-04-25T04:53:30;8.20;99.90
21570;DHT22;57598;50.888;4.746;2023-04-25T04:55:57;8.20;99.90
21570;DHT22;57598;50.888;4.746;2023-04-25T04:58:25;8.20;99.90
21570;DHT22;57598;50.888;4.746;2023-04-25T05:00:57;8.20;99.90
21570;DHT22;57598;50.888;4.746;2023-04-25T05:03:30;8.20;99.90
21570;DHT22;57598;50.888;4.746;2023-04-25T05:05:58;8.20;99.90
21570;DHT22;57598;50.888;4.746;2023-04-25T05:08:26;8.20;99.90
21570;DHT22;57598;50.888;4.746;2023-04-25T05:14:46;8.30;99.90
21570;DHT22;57598;50.888;4.746;2023-04-25T05:17:13;8.30;99.90
21570;DHT22;57598;50.888;4.746;2023-04-25T05:19:42;8.40;99.90
21570;DHT22;57598;50.888;4.746;2023-04-25T05:22:10;8.30;99.90
21570;DHT22;57598;50.888;4.746;2023-04-25T05:25:05;8.30;99.90
21570;DHT22;57598;50.888;4.746;2023-04-25T05:28:13;8.20;99.90
21570;DHT22;57598;50.888;4.746;2023-04-25T05:30:56;8.20;99.90
21570;DHT22;57598;50.888;4.746;2023-04-25T05:54:48;8.30;99.90
21570;DHT22;57598;50.888;4.746;2023-04-25T05:57:52;8.30;99.90
21570;DHT22;57598;50.888;4.746;2023-04-25T06:05:34;8.20;99.90
21570;DHT22;57598;50.888;4.746;2023-04-25T06:08:51;8.30;99.90
21570;DHT22;57598;50.888;4.746;2023-04-25T06:47:55;8.80;99.90
21570;DHT22;57598;50.888;4.746;2023-04-25T06:50:22;9.00;99.90
21570;DHT22;57598;50.888;4.746;2023-04-25T06:52:49;9.00;99.90
21570;DHT22;57598;50.888;4.746;2023-04-25T06:55:16;9.00;99.90
21570;DHT22;57598;50.888;4.746;2023-04-25T06:57:43;9.00;99.90
21570;DHT22;57598;50.888;4.746;2023-04-25T07:00:11;9.00;99.90
21570;DHT22;57598;50.888;4.746;2023-04-25T07:02:38;9.10;99.90
21570;DHT22;57598;50.888;4.746;2023-04-25T07:05:07;9.00;99.90
21570;DHT22;57598;50.888;4.746;2023-04-25T07:07:34;8.80;99.90
21570;DHT22;57598;50.888;4.746;2023-04-25T07:10:02;8.80;99.90
21570;DHT22;57598;50.888;4.746;2023-04-25T07:12:29;8.90;99.90
21570;DHT22;57598;50.888;4.746;2023-04-25T07:14:56;8.90;99.90
21570;DHT22;57598;50.888;4.746;2023-04-25T07:17:23;9.00;99.90
21570;DHT22;57598;50.888;4.746;2023-04-25T07:19:50;9.00;99.90
21570;DHT22;57598;50.888;4.746;2023-04-25T07:22:18;8.90;99.90
21570;DHT22;57598;50.888;4.746;2023-04-25T07:24:45;9.00;99.90
21570;DHT22;57598;50.888;4.746;2023-04-25T07:27:14;9.00;99.90
21570;DHT22;57598;50.888;4.746;2023-04-25T07:29:41;9.20;99.90
21570;DHT22;57598;50.888;4.746;2023-04-25T07:32:08;9.20;99.90
21570;DHT22;57598;50.888;4.746;2023-04-25T07:34:37;9.30;99.90
21570;DHT22;57598;50.888;4.746;2023-04-25T07:37:04;9.40;99.90
21570;DHT22;57598;50.888;4.746;2023-04-25T07:39:33;9.60;99.90
21570;DHT22;57598;50.888;4.746;2023-04-25T07:42:01;9.70;99.90
21570;DHT22;57598;50.888;4.746;2023-04-25T07:44:28;9.70;99.90
21570;DHT22;57598;50.888;4.746;2023-04-25T07:46:56;9.70;99.90
21570;DHT22;57598;50.888;4.746;2023-04-25T07:49:23;9.80;99.90
21570;DHT22;57598;50.888;4.746;2023-04-25T07:51:50;9.70;99.90
21570;DHT22;57598;50.888;4.746;2023-04-25T07:54:17;9.60;99.90
21570;DHT22;57598;50.888;4.746;2023-04-25T07:56:45;9.50;99.90
21570;DHT22;57598;50.888;4.746;2023-04-25T07:59:12;9.50;99.90
21570;DHT22;57598;50.888;4.746;2023-04-25T08:01:39;9.60;99.90
21570;DHT22;57598;50.888;4.746;2023-04-25T08:04:06;9.70;99.90
21570;DHT22;57598;50.888;4.746;2023-04-25T08:06:33;10.00;99.90
21570;DHT22;57598;50.888;4.746;2023-04-25T08:09:03;10.00;99.90
21570;DHT22;57598;50.888;4.746;2023-04-25T08:11:34;10.10;99.90
21570;DHT22;57598;50.888;4.746;2023-04-25T08:14:02;10.10;99.90
21570;DHT22;57598;50.888;4.746;2023-04-25T08:16:29;9.90;99.90
21570;DHT22;57598;50.888;4.746;2023-04-25T08:18:56;10.00;99.90
21570;DHT22;57598;50.888;4.746;2023-04-25T08:21:23;9.90;99.90
21570;DHT22;57598;50.888;4.746;2023-04-25T08:23:51;9.90;99.90
21570;DHT22;57598;50.888;4.746;2023-04-25T08:26:18;10.00;99.90
21570;DHT22;57598;50.888;4.746;2023-04-25T08:28:46;9.60;99.90
21570;DHT22;57598;50.888;4.746;2023-04-25T08:31:15;9.30;99.90
21570;DHT22;57598;50.888;4.746;2023-04-25T08:33:42;9.10;99.90
21570;DHT22;57598;50.888;4.746;2023-04-25T08:36:09;9.00;99.90
21570;DHT22;57598;50.888;4.746;2023-04-25T08:38:36;9.10;99.90
21570;DHT22;57598;50.888;4.746;2023-04-25T08:41:04;9.20;99.90
21570;DHT22;57598;50.888;4.746;2023-04-25T08:43:32;9.30;99.90
21570;DHT22;57598;50.888;4.746;2023-04-25T08:46:00;9.40;99.90
21570;DHT22;57598;50.888;4.746;2023-04-25T08:48:32;9.20;99.90
21570;DHT22;57598;50.888;4.746;2023-04-25T08:51:03;9.30;99.90
21570;DHT22;57598;50.888;4.746;2023-04-25T08:53:34;9.40;99.90
21570;DHT22;57598;50.888;4.746;2023-04-25T08:56:01;9.60;99.90
21570;DHT22;57598;50.888;4.746;2023-04-25T08:58:29;9.70;99.90
21570;DHT22;57598;50.888;4.746;2023-04-25T09:00:56;9.60;99.90
21570;DHT22;57598;50.888;4.746;2023-04-25T09:03:23;9.60;99.90
21570;DHT22;57598;50.888;4.746;2023-04-25T09:05:51;9.80;99.90
21570;DHT22;57598;50.888;4.746;2023-04-25T09:08:18;10.00;99.90
21570;DHT22;57598;50.888;4.746;2023-04-25T09:10:45;10.20;99.90
21570;DHT22;57598;50.888;4.746;2023-04-25T09:13:14;10.30;99.90
21570;DHT22;57598;50.888;4.746;2023-04-25T09:15:48;10.80;99.90
21570;DHT22;57598;50.888;4.746;2023-04-25T09:18:24;11.90;99.90
21570;DHT22;57598;50.888;4.746;2023-04-25T09:20:54;12.90;99.90
21570;DHT22;57598;50.888;4.746;2023-04-25T09:23:22;13.60;99.90
21570;DHT22;57598;50.888;4.746;2023-04-25T09:25:53;14.20;99.90
21570;DHT22;57598;50.888;4.746;2023-04-25T09:28:24;14.60;99.90
21570;DHT22;57598;50.888;4.746;2023-04-25T09:30:54;13.70;99.90
21570;DHT22;57598;50.888;4.746;2023-04-25T09:33:27;13.30;99.90
21570;DHT22;57598;50.888;4.746;2023-04-25T09:36:02;12.20;99.90
21570;DHT22;57598;50.888;4.746;2023-04-25T09:38:30;11.20;99.90
21570;DHT22;57598;50.888;4.746;2023-04-25T09:40:58;11.10;99.90
21570;DHT22;57598;50.888;4.746;2023-04-25T09:43:26;10.80;99.90
21570;DHT22;57598;50.888;4.746;2023-04-25T09:45:58;10.80;99.90
21570;DHT22;57598;50.888;4.746;2023-04-25T09:48:27;10.50;99.90
21570;DHT22;57598;50.888;4.746;2023-04-25T09:51:09;10.70;99.90
21570;DHT22;57598;50.888;4.746;2023-04-25T09:53:37;10.60;99.90
21570;DHT22;57598;50.888;4.746;2023-04-25T09:56:06;10.60;99.90
21570;DHT22;57598;50.888;4.746;2023-04-25T09:58:34;10.60;99.90
21570;DHT22;57598;50.888;4.746;2023-04-25T10:01:04;10.50;99.90
21570;DHT22;57598;50.888;4.746;2023-04-25T10:03:34;10.40;99.90
21570;DHT22;57598;50.888;4.746;2023-04-25T10:06:02;10.50;99.90
21570;DHT22;57598;50.888;4.746;2023-04-25T10:08:33;10.60;99.90
21570;DHT22;57598;50.888;4.746;2023-04-25T10:11:01;10.90;99.90
21570;DHT22;57598;50.888;4.746;2023-04-25T10:13:29;11.40;99.90
21570;DHT22;57598;50.888;4.746;2023-04-25T10:16:00;12.00;99.90
21570;DHT22;57598;50.888;4.746;2023-04-25T10:18:28;12.50;99.90
21570;DHT22;57598;50.888;4.746;2023-04-25T10:20:56;13.00;99.90
21570;DHT22;57598;50.888;4.746;2023-04-25T10:23:25;13.80;99.90
21570;DHT22;57598;50.888;4.746;2023-04-25T10:25:54;15.20;95.40
21570;DHT22;57598;50.888;4.746;2023-04-25T10:28:21;16.00;92.30
21570;DHT22;57598;50.888;4.746;2023-04-25T10:30:58;16.90;90.80
21570;DHT22;57598;50.888;4.746;2023-04-25T10:33:36;17.90;85.40
21570;DHT22;57598;50.888;4.746;2023-04-25T10:36:11;17.70;84.80
21570;DHT22;57598;50.888;4.746;2023-04-25T10:38:39;17.40;80.40
21570;DHT22;57598;50.888;4.746;2023-04-25T10:41:08;17.00;81.10
21570;DHT22;57598;50.888;4.746;2023-04-25T10:43:40;16.40;85.40
21570;DHT22;57598;50.888;4.746;2023-04-25T10:46:18;14.30;84.10
21570;DHT22;57598;50.888;4.746;2023-04-25T10:48:47;13.40;84.20
21570;DHT22;57598;50.888;4.746;2023-04-25T10:51:20;13.00;86.40
21570;DHT22;57598;50.888;4.746;2023-04-25T10:53:57;13.30;88.40
21570;DHT22;57598;50.888;4.746;2023-04-25T10:56:27;13.80;86.00
21570;DHT22;57598;50.888;4.746;2023-04-25T10:59:06;14.40;82.40
21570;DHT22;57598;50.888;4.746;2023-04-25T11:01:39;15.10;82.80
21570;DHT22;57598;50.888;4.746;2023-04-25T11:04:06;15.20;81.00
21570;DHT22;57598;50.888;4.746;2023-04-25T11:07:02;15.30;82.40
21570;DHT22;57598;50.888;4.746;2023-04-25T11:09:33;16.30;82.80
21570;DHT22;57598;50.888;4.746;2023-04-25T11:12:01;16.40;81.10
21570;DHT22;57598;50.888;4.746;2023-04-25T11:14:28;16.50;79.90
21570;DHT22;57598;50.888;4.746;2023-04-25T11:16:56;15.80;81.30
21570;DHT22;57598;50.888;4.746;2023-04-25T11:19:24;14.60;84.20
21570;DHT22;57598;50.888;4.746;2023-04-25T11:21:55;13.80;86.40
21570;DHT22;57598;50.888;4.746;2023-04-25T11:24:26;13.00;89.50
21570;DHT22;57598;50.888;4.746;2023-04-25T11:26:53;12.40;90.60
21570;DHT22;57598;50.888;4.746;2023-04-25T11:29:23;12.60;90.90
21570;DHT22;57598;50.888;4.746;2023-04-25T11:31:50;12.80;90.90
21570;DHT22;57598;50.888;4.746;2023-04-25T11:34:18;12.70;91.30
21570;DHT22;57598;50.888;4.746;2023-04-25T11:36:45;12.50;91.80
21570;DHT22;57598;50.888;4.746;2023-04-25T11:39:12;12.70;91.70
21570;DHT22;57598;50.888;4.746;2023-04-25T11:41:41;12.70;92.40
21570;DHT22;57598;50.888;4.746;2023-04-25T11:44:09;12.90;91.40
21570;DHT22;57598;50.888;4.746;2023-04-25T11:46:37;13.10;90.10
21570;DHT22;57598;50.888;4.746;2023-04-25T11:49:04;13.30;88.70
21570;DHT22;57598;50.888;4.746;2023-04-25T11:51:38;14.00;85.70
21570;DHT22;57598;50.888;4.746;2023-04-25T11:54:06;14.00;83.80
21570;DHT22;57598;50.888;4.746;2023-04-25T11:56:33;14.00;84.80
21570;DHT22;57598;50.888;4.746;2023-04-25T11:59:01;13.80;87.20
21570;DHT22;57598;50.888;4.746;2023-04-25T12:01:29;13.50;84.90
21570;DHT22;57598;50.888;4.746;2023-04-25T12:03:58;13.50;84.50
21570;DHT22;57598;50.888;4.746;2023-04-25T12:06:37;13.50;89.20
21570;DHT22;57598;50.888;4.746;2023-04-25T12:09:08;14.10;90.70
21570;DHT22;57598;50.888;4.746;2023-04-25T12:11:41;14.20;91.20
21570;DHT22;57598;50.888;4.746;2023-04-25T12:14:08;14.40;90.60
21570;DHT22;57598;50.888;4.746;2023-04-25T12:16:42;14.20;90.50
21570;DHT22;57598;50.888;4.746;2023-04-25T12:19:14;14.20;90.30
21570;DHT22;57598;50.888;4.746;2023-04-25T12:21:41;13.70;90.80
21570;DHT22;57598;50.888;4.746;2023-04-25T12:24:10;13.60;90.50
21570;DHT22;57598;50.888;4.746;2023-04-25T12:26:51;13.40;85.70
21570;DHT22;57598;50.888;4.746;2023-04-25T12:29:20;14.00;87.90
21570;DHT22;57598;50.888;4.746;2023-04-25T12:31:47;14.10;86.30
21570;DHT22;57598;50.888;4.746;2023-04-25T12:34:15;14.90;86.30
21570;DHT22;57598;50.888;4.746;2023-04-25T12:36:42;15.00;80.50
21570;DHT22;57598;50.888;4.746;2023-04-25T12:39:14;15.10;80.80
21570;DHT22;57598;50.888;4.746;2023-04-25T12:41:42;15.70;79.20
21570;DHT22;57598;50.888;4.746;2023-04-25T12:44:09;16.00;77.20
21570;DHT22;57598;50.888;4.746;2023-04-25T12:46:36;16.10;74.40
21570;DHT22;57598;50.888;4.746;2023-04-25T12:49:03;15.70;79.10
21570;DHT22;57598;50.888;4.746;2023-04-25T12:51:33;14.90;75.40
21570;DHT22;57598;50.888;4.746;2023-04-25T12:54:00;15.70;75.40
21570;DHT22;57598;50.888;4.746;2023-04-25T12:56:27;17.10;75.70
21570;DHT22;57598;50.888;4.746;2023-04-25T12:58:54;17.30;73.10
21570;DHT22;57598;50.888;4.746;2023-04-25T13:01:21;17.80;70.70
21570;DHT22;57598;50.888;4.746;2023-04-25T13:03:48;18.50;66.90
21570;DHT22;57598;50.888;4.746;2023-04-25T13:06:15;18.00;68.40
21570;DHT22;57598;50.888;4.746;2023-04-25T13:08:44;16.60;71.30
21570;DHT22;57598;50.888;4.746;2023-04-25T13:11:11;16.30;74.20
21570;DHT22;57598;50.888;4.746;2023-04-25T13:13:40;15.70;71.40
21570;DHT22;57598;50.888;4.746;2023-04-25T13:16:08;14.80;73.80
21570;DHT22;57598;50.888;4.746;2023-04-25T13:18:36;14.40;76.20
21570;DHT22;57598;50.888;4.746;2023-04-25T13:21:03;14.50;77.60
21570;DHT22;57598;50.888;4.746;2023-04-25T13:23:30;14.30;80.90
21570;DHT22;57598;50.888;4.746;2023-04-25T13:25:59;13.80;81.70
21570;DHT22;57598;50.888;4.746;2023-04-25T13:28:27;14.20;82.10
21570;DHT22;57598;50.888;4.746;2023-04-25T13:30:54;14.50;84.20
21570;DHT22;57598;50.888;4.746;2023-04-25T13:33:21;15.60;81.60
21570;DHT22;57598;50.888;4.746;2023-04-25T13:35:49;15.70;77.00
21570;DHT22;57598;50.888;4.746;2023-04-25T13:38:20;15.60;77.90
21570;DHT22;57598;50.888;4.746;2023-04-25T13:40:48;16.10;78.20
21570;DHT22;57598;50.888;4.746;2023-04-25T13:43:17;17.30;74.90
21570;DHT22;57598;50.888;4.746;2023-04-25T13:45:44;17.90;73.50
21570;DHT22;57598;50.888;4.746;2023-04-25T13:48:11;18.10;72.70
21570;DHT22;57598;50.888;4.746;2023-04-25T13:50:38;18.40;68.80
21570;DHT22;57598;50.888;4.746;2023-04-25T13:53:05;17.90;69.90
21570;DHT22;57598;50.888;4.746;2023-04-25T13:55:33;17.00;68.30
21570;DHT22;57598;50.888;4.746;2023-04-25T13:58:00;16.20;69.70
21570;DHT22;57598;50.888;4.746;2023-04-25T14:00:34;15.30;71.30
21570;DHT22;57598;50.888;4.746;2023-04-25T14:03:03;15.50;73.90
21570;DHT22;57598;50.888;4.746;2023-04-25T14:05:33;16.20;74.80
21570;DHT22;57598;50.888;4.746;2023-04-25T14:08:04;17.40;68.20
21570;DHT22;57598;50.888;4.746;2023-04-25T14:10:31;16.70;72.40
21570;DHT22;57598;50.888;4.746;2023-04-25T14:12:58;16.30;71.50
21570;DHT22;57598;50.888;4.746;2023-04-25T14:15:26;15.70;73.00
21570;DHT22;57598;50.888;4.746;2023-04-25T14:17:54;15.20;71.10
21570;DHT22;57598;50.888;4.746;2023-04-25T14:20:21;14.30;72.40
21570;DHT22;57598;50.888;4.746;2023-04-25T14:22:49;14.50;74.00
21570;DHT22;57598;50.888;4.746;2023-04-25T14:25:17;14.40;73.10
21570;DHT22;57598;50.888;4.746;2023-04-25T14:27:44;14.50;73.10
21570;DHT22;57598;50.888;4.746;2023-04-25T14:30:15;14.20;72.50
21570;DHT22;57598;50.888;4.746;2023-04-25T14:32:42;14.10;77.60
21570;DHT22;57598;50.888;4.746;2023-04-25T14:35:11;14.40;78.80
21570;DHT22;57598;50.888;4.746;2023-04-25T14:37:38;14.70;77.40
21570;DHT22;57598;50.888;4.746;2023-04-25T14:40:07;14.60;76.80
21570;DHT22;57598;50.888;4.746;2023-04-25T14:42:36;14.40;74.80
21570;DHT22;57598;50.888;4.746;2023-04-25T14:45:03;14.40;76.80
21570;DHT22;57598;50.888;4.746;2023-04-25T14:47:30;14.50;77.50
21570;DHT22;57598;50.888;4.746;2023-04-25T14:49:57;14.50;77.80
21570;DHT22;57598;50.888;4.746;2023-04-25T14:52:26;14.10;75.50
21570;DHT22;57598;50.888;4.746;2023-04-25T14:54:53;14.10;76.10
21570;DHT22;57598;50.888;4.746;2023-04-25T14:57:20;14.00;74.60
21570;DHT22;57598;50.888;4.746;2023-04-25T14:59:47;15.20;75.10
21570;DHT22;57598;50.888;4.746;2023-04-25T15:02:14;15.80;70.60
21570;DHT22;57598;50.888;4.746;2023-04-25T15:04:41;15.30;71.30
21570;DHT22;57598;50.888;4.746;2023-04-25T15:07:08;14.60;73.60
21570;DHT22;57598;50.888;4.746;2023-04-25T15:09:37;13.90;76.50
21570;DHT22;57598;50.888;4.746;2023-04-25T15:12:04;13.60;77.00
21570;DHT22;57598;50.888;4.746;2023-04-25T15:14:31;13.00;78.90
21570;DHT22;57598;50.888;4.746;2023-04-25T15:16:59;12.80;80.30
21570;DHT22;57598;50.888;4.746;2023-04-25T15:19:26;13.10;82.10
21570;DHT22;57598;50.888;4.746;2023-04-25T15:21:53;13.50;80.00
21570;DHT22;57598;50.888;4.746;2023-04-25T15:24:20;13.80;79.10
21570;DHT22;57598;50.888;4.746;2023-04-25T15:26:49;14.30;79.10
21570;DHT22;57598;50.888;4.746;2023-04-25T15:29:17;14.30;78.10
21570;DHT22;57598;50.888;4.746;2023-04-25T15:31:44;14.20;78.30
21570;DHT22;57598;50.888;4.746;2023-04-25T15:34:11;14.00;77.80
21570;DHT22;57598;50.888;4.746;2023-04-25T15:36:38;13.70;77.40
21570;DHT22;57598;50.888;4.746;2023-04-25T15:39:05;13.50;77.00
21570;DHT22;57598;50.888;4.746;2023-04-25T15:41:32;13.30;79.20
21570;DHT22;57598;50.888;4.746;2023-04-25T15:44:01;13.10;80.70
21570;DHT22;57598;50.888;4.746;2023-04-25T15:46:28;13.20;78.70
21570;DHT22;57598;50.888;4.746;2023-04-25T15:48:56;13.30;80.70
21570;DHT22;57598;50.888;4.746;2023-04-25T15:51:23;13.40;79.00
21570;DHT22;57598;50.888;4.746;2023-04-25T15:53:51;13.30;78.60
21570;DHT22;57598;50.888;4.746;2023-04-25T15:56:18;13.30;79.40
21570;DHT22;57598;50.888;4.746;2023-04-25T15:58:46;13.20;79.50
21570;DHT22;57598;50.888;4.746;2023-04-25T16:01:14;13.20;79.20
21570;DHT22;57598;50.888;4.746;2023-04-25T16:03:41;13.00;79.20
21570;DHT22;57598;50.888;4.746;2023-04-25T16:06:08;12.90;79.50
21570;DHT22;57598;50.888;4.746;2023-04-25T16:08:35;12.80;78.90
21570;DHT22;57598;50.888;4.746;2023-04-25T16:11:02;12.60;78.90
21570;DHT22;57598;50.888;4.746;2023-04-25T16:13:29;12.50;79.30
21570;DHT22;57598;50.888;4.746;2023-04-25T16:15:58;12.50;80.00
21570;DHT22;57598;50.888;4.746;2023-04-25T16:18:26;12.30;80.20
21570;DHT22;57598;50.888;4.746;2023-04-25T16:20:53;12.30;80.40
21570;DHT22;57598;50.888;4.746;2023-04-25T16:23:20;12.10;80.50
21570;DHT22;57598;50.888;4.746;2023-04-25T16:25:48;12.40;80.50
21570;DHT22;57598;50.888;4.746;2023-04-25T16:28:15;12.20;80.50
21570;DHT22;57598;50.888;4.746;2023-04-25T16:30:42;12.20;81.20
21570;DHT22;57598;50.888;4.746;2023-04-25T16:33:09;12.10;82.30
21570;DHT22;57598;50.888;4.746;2023-04-25T16:35:38;12.20;81.60
21570;DHT22;57598;50.888;4.746;2023-04-25T16:38:05;12.30;81.30
21570;DHT22;57598;50.888;4.746;2023-04-25T16:40:32;12.20;81.10
21570;DHT22;57598;50.888;4.746;2023-04-25T16:42:59;12.10;81.50
21570;DHT22;57598;50.888;4.746;2023-04-25T16:45:26;12.00;82.30
21570;DHT22;57598;50.888;4.746;2023-04-25T16:47:53;12.00;82.70
21570;DHT22;57598;50.888;4.746;2023-04-25T16:50:20;11.90;84.20
21570;DHT22;57598;50.888;4.746;2023-04-25T16:52:48;11.80;82.90
21570;DHT22;57598;50.888;4.746;2023-04-25T16:55:16;11.80;84.40